createdAt,value
2023-03-23T00:02:28.717Z,99996.00
2023-03-23T00:05:01.585Z,99981.00
2023-03-23T00:07:32.166Z,99971.00
2023-03-23T00:10:03.962Z,99978.00
2023-03-23T00:15:13.979Z,99972.00
2023-03-23T00:17:44.640Z,99974.00
2023-03-23T00:20:15.346Z,99962.00
2023-03-23T00:22:45.309Z,99957.00
2023-03-23T00:25:17.871Z,99950.00
2023-03-23T00:27:50.528Z,99954.00
2023-03-23T00:30:21.267Z,99950.00
2023-03-23T00:32:52.000Z,99956.00
2023-03-23T00:35:22.084Z,99953.00
2023-03-23T00:37:52.187Z,99950.00
2023-03-23T00:40:22.401Z,99939.00
2023-03-23T00:42:55.040Z,99941.00
2023-03-23T00:45:25.243Z,99943.00
2023-03-23T00:47:55.291Z,99946.00
2023-03-23T00:50:33.795Z,99940.00
2023-03-23T00:53:08.688Z,99942.00
2023-03-23T00:55:38.840Z,99935.00
2023-03-23T00:58:12.840Z,99929.00
2023-03-23T01:00:43.528Z,99926.00
2023-03-23T01:03:19.254Z,99930.00
2023-03-23T01:05:52.877Z,99925.00
2023-03-23T01:08:23.710Z,99917.00
2023-03-23T01:10:55.113Z,99923.00
2023-03-23T01:13:27.692Z,99915.00
2023-03-23T01:15:57.854Z,99911.00
2023-03-23T01:18:33.989Z,99896.00
2023-03-23T01:21:09.206Z,99901.00
2023-03-23T01:23:39.196Z,99913.00
2023-03-23T01:26:11.117Z,99908.00
2023-03-23T01:28:44.241Z,99887.00
2023-03-23T01:31:17.255Z,99886.00
2023-03-23T01:33:48.462Z,99882.00
2023-03-23T01:36:22.461Z,99886.00
2023-03-23T01:38:54.955Z,99889.00
2023-03-23T01:41:25.920Z,99885.00
2023-03-23T01:44:11.586Z,99881.00
2023-03-23T01:46:41.664Z,99880.00
2023-03-23T01:49:15.403Z,99883.00
2023-03-23T01:51:48.148Z,99877.00
2023-03-23T01:54:22.078Z,99878.00
2023-03-23T01:56:57.831Z,99885.00
2023-03-23T01:59:31.729Z,99881.00
2023-03-23T02:02:02.103Z,99883.00
2023-03-23T02:04:34.077Z,99873.00
2023-03-23T02:07:04.481Z,99872.00
2023-03-23T02:09:34.975Z,99871.00
2023-03-23T02:12:06.372Z,99864.00
2023-03-23T02:14:42.072Z,99861.00
2023-03-23T02:17:18.863Z,99858.00
2023-03-23T02:20:21.361Z,99864.00
2023-03-23T02:23:18.951Z,99852.00
2023-03-23T02:26:08.970Z,99857.00
2023-03-23T02:29:24.300Z,99868.00
2023-03-23T02:32:18.469Z,99851.00
2023-03-23T02:34:55.585Z,99851.00
2023-03-23T02:37:31.807Z,99851.00
2023-03-23T02:40:12.434Z,99839.00
2023-03-23T02:42:47.001Z,99842.00
2023-03-23T02:45:19.950Z,99850.00
2023-03-23T02:47:56.006Z,99858.00
2023-03-23T02:50:32.108Z,99843.00
2023-03-23T02:53:04.276Z,99843.00
2023-03-23T02:55:36.155Z,99861.00
2023-03-23T02:58:06.745Z,99861.00
2023-03-23T03:00:36.948Z,99845.00
2023-03-23T03:03:11.361Z,99843.00
2023-03-23T03:05:55.920Z,99839.00
2023-03-23T03:08:32.363Z,99854.00
2023-03-23T03:11:07.717Z,99850.00
2023-03-23T03:13:49.789Z,99863.00
2023-03-23T03:16:28.902Z,99860.00
2023-03-23T03:19:04.579Z,99857.00
2023-03-23T03:21:43.026Z,99839.00
2023-03-23T03:24:16.264Z,99845.00
2023-03-23T03:26:52.641Z,99848.00
2023-03-23T03:29:26.573Z,99838.00
2023-03-23T03:31:59.585Z,99845.00
2023-03-23T03:34:33.214Z,99840.00
2023-03-23T03:37:06.700Z,99834.00
2023-03-23T03:39:40.113Z,99838.00
2023-03-23T03:42:11.176Z,99839.00
2023-03-23T03:44:41.769Z,99843.00
2023-03-23T03:47:12.008Z,99847.00
2023-03-23T03:49:42.117Z,99830.00
2023-03-23T03:52:15.624Z,99828.00
2023-03-23T03:54:45.938Z,99831.00
2023-03-23T03:57:15.961Z,99824.00
2023-03-23T03:59:46.740Z,99818.00
2023-03-23T04:02:20.942Z,99826.00
2023-03-23T04:04:53.673Z,99822.00
2023-03-23T04:07:27.376Z,99834.00
2023-03-23T04:09:57.907Z,99825.00
2023-03-23T04:12:28.047Z,99826.00
2023-03-23T04:14:58.076Z,99820.00
2023-03-23T04:17:36.961Z,99831.00
2023-03-23T04:20:13.897Z,99827.00
2023-03-23T04:22:50.245Z,99820.00
2023-03-23T04:25:24.503Z,99810.00
2023-03-23T04:27:56.333Z,99801.00
2023-03-23T04:30:29.008Z,99795.00
2023-03-23T04:33:01.684Z,99813.00
2023-03-23T04:35:32.880Z,99808.00
2023-03-23T04:38:05.985Z,99812.00
2023-03-23T04:40:36.701Z,99803.00
2023-03-23T04:43:07.413Z,99799.00
2023-03-23T04:45:42.968Z,99817.00
2023-03-23T04:48:13.477Z,99813.00
2023-03-23T04:50:43.907Z,99805.00
2023-03-23T04:53:18.789Z,99823.00
2023-03-23T04:55:50.405Z,99823.00
2023-03-23T04:58:21.930Z,99813.00
2023-03-23T05:00:53.013Z,99831.00
2023-03-23T05:03:24.105Z,99841.00
2023-03-23T05:05:55.071Z,99834.00
2023-03-23T05:08:28.389Z,99836.00
2023-03-23T05:11:00.993Z,99837.00
2023-03-23T05:13:32.447Z,99836.00
2023-03-23T05:16:06.682Z,99834.00
2023-03-23T05:18:37.261Z,99837.00
2023-03-23T05:21:08.511Z,99842.00
2023-03-23T05:23:41.348Z,99840.00
2023-03-23T05:26:11.568Z,99845.00
2023-03-23T05:28:43.146Z,99828.00
2023-03-23T05:31:14.430Z,99842.00
2023-03-23T05:33:44.621Z,99834.00
2023-03-23T05:36:15.100Z,99832.00
2023-03-23T05:38:49.110Z,99844.00
2023-03-23T05:41:19.340Z,99845.00
2023-03-23T05:43:49.657Z,99847.00
2023-03-23T05:46:19.733Z,99841.00
2023-03-23T05:48:49.949Z,99849.00
2023-03-23T05:51:21.066Z,99856.00
2023-03-23T05:53:54.011Z,99849.00
2023-03-23T05:56:24.515Z,99857.00
2023-03-23T05:58:54.918Z,99854.00
2023-03-23T06:01:25.378Z,99853.00
2023-03-23T06:04:00.416Z,99860.00
2023-03-23T06:06:33.106Z,99858.00
2023-03-23T06:09:07.271Z,99863.00
2023-03-23T06:11:37.990Z,99873.00
2023-03-23T06:14:08.885Z,99870.00
2023-03-23T06:16:39.344Z,99875.00
2023-03-23T06:19:09.716Z,99874.00
2023-03-23T06:21:41.587Z,99883.00
2023-03-23T06:24:14.640Z,99882.00
2023-03-23T06:26:45.544Z,99884.00
2023-03-23T06:29:15.946Z,99878.00
2023-03-23T06:31:52.195Z,99890.00
2023-03-23T06:34:23.011Z,99881.00
2023-03-23T06:36:53.652Z,99887.00
2023-03-23T06:39:26.398Z,99890.00
2023-03-23T06:41:57.240Z,99885.00
2023-03-23T06:44:27.416Z,99892.00
2023-03-23T06:46:57.635Z,99894.00
2023-03-23T06:49:28.653Z,99890.00
2023-03-23T06:52:01.522Z,99899.00
2023-03-23T06:54:34.435Z,99889.00
2023-03-23T06:57:04.721Z,99892.00
2023-03-23T06:59:34.895Z,99899.00
2023-03-23T07:02:05.557Z,99907.00
2023-03-23T07:04:35.923Z,99905.00
2023-03-23T07:07:06.228Z,99904.00
2023-03-23T07:09:43.200Z,99902.00
2023-03-23T07:12:13.735Z,99899.00
2023-03-23T07:14:43.984Z,99898.00
2023-03-23T07:17:14.206Z,99899.00
2023-03-23T07:19:44.633Z,99896.00
2023-03-23T07:22:14.935Z,99895.00
2023-03-23T07:24:47.828Z,99899.00
2023-03-23T07:27:18.312Z,99901.00
2023-03-23T07:29:48.555Z,99898.00
2023-03-23T07:32:18.843Z,99901.00
2023-03-23T07:34:49.173Z,99902.00
2023-03-23T07:37:19.417Z,99908.00
2023-03-23T07:39:52.333Z,99895.00
2023-03-23T07:42:22.655Z,99884.00
2023-03-23T07:44:52.953Z,99875.00
2023-03-23T07:47:23.266Z,99885.00
2023-03-23T07:50:04.412Z,99904.00
2023-03-23T07:52:34.860Z,99900.00
2023-03-23T07:55:12.813Z,99892.00
2023-03-23T07:57:43.219Z,99885.00
2023-03-23T08:00:20.169Z,99886.00
2023-03-23T08:02:52.305Z,99902.00
2023-03-23T08:05:24.636Z,99894.00
2023-03-23T08:07:55.458Z,99891.00
2023-03-23T08:10:28.239Z,99876.00
2023-03-23T08:13:01.020Z,99887.00
2023-03-23T08:15:31.913Z,99862.00
2023-03-23T08:18:03.652Z,99846.00
2023-03-23T08:20:34.064Z,99845.00
2023-03-23T08:23:04.464Z,99848.00
2023-03-23T08:25:37.489Z,99859.00
2023-03-23T08:28:08.385Z,99875.00
2023-03-23T08:30:39.063Z,99879.00
2023-03-23T08:33:11.306Z,99885.00
2023-03-23T08:35:41.650Z,99890.00
2023-03-23T08:38:12.588Z,99893.00
2023-03-23T08:40:45.291Z,99894.00
2023-03-23T08:43:16.570Z,99899.00
2023-03-23T08:45:46.681Z,99894.00
2023-03-23T08:48:16.818Z,99903.00
2023-03-23T08:50:47.206Z,99892.00
2023-03-23T08:53:17.395Z,99902.00
2023-03-23T08:55:50.855Z,99909.00
2023-03-23T08:58:21.285Z,99906.00
2023-03-23T09:00:52.245Z,99890.00
2023-03-23T09:03:22.375Z,99882.00
2023-03-23T09:05:52.696Z,99886.00
2023-03-23T09:08:23.335Z,99883.00
2023-03-23T09:10:56.312Z,99887.00
2023-03-23T09:13:26.664Z,99898.00
2023-03-23T09:15:57.285Z,99905.00
2023-03-23T09:18:27.975Z,99906.00
2023-03-23T09:20:59.431Z,99909.00
2023-03-23T09:23:29.923Z,99902.00
2023-03-23T09:26:04.631Z,99910.00
2023-03-23T09:28:35.244Z,99902.00
2023-03-23T09:31:06.048Z,99901.00
2023-03-23T09:33:37.669Z,99887.00
2023-03-23T09:36:18.457Z,99898.00
2023-03-23T09:38:49.740Z,99896.00
2023-03-23T09:41:50.077Z,99896.00
2023-03-23T09:44:33.069Z,99898.00
2023-03-23T09:47:09.715Z,99899.00
2023-03-23T09:49:45.456Z,99901.00
2023-03-23T09:52:18.383Z,99904.00
2023-03-23T09:54:51.632Z,99898.00
2023-03-23T09:57:34.383Z,99910.00
2023-03-23T10:00:11.342Z,99916.00
2023-03-23T10:02:47.839Z,99911.00
2023-03-23T10:05:39.706Z,99920.00
2023-03-23T10:08:16.223Z,99910.00
2023-03-23T10:11:00.914Z,99906.00
2023-03-23T10:13:54.007Z,99912.00
2023-03-23T10:16:29.358Z,99904.00
2023-03-23T10:19:08.354Z,99901.00
2023-03-23T10:21:45.261Z,99903.00
2023-03-23T10:24:20.109Z,99897.00
2023-03-23T10:27:00.989Z,99905.00
2023-03-23T10:29:40.435Z,99894.00
2023-03-23T10:32:18.626Z,99892.00
2023-03-23T10:34:56.978Z,99889.00
2023-03-23T10:37:32.510Z,99886.00
2023-03-23T10:40:10.517Z,99886.00
2023-03-23T10:42:42.545Z,99869.00
2023-03-23T10:45:23.636Z,99875.00
2023-03-23T10:47:59.145Z,99884.00
2023-03-23T10:50:35.076Z,99876.00
2023-03-23T10:53:09.610Z,99877.00
2023-03-23T10:55:43.089Z,99872.00
2023-03-23T10:58:16.061Z,99883.00
2023-03-23T11:00:51.657Z,99885.00
2023-03-23T11:03:38.584Z,99886.00
2023-03-23T11:06:12.046Z,99887.00
2023-03-23T11:08:52.421Z,99885.00
2023-03-23T11:11:31.096Z,99891.00
2023-03-23T11:14:04.013Z,99889.00
2023-03-23T11:16:38.921Z,99903.00
2023-03-23T11:19:18.125Z,99902.00
2023-03-23T11:21:54.076Z,99909.00
2023-03-23T11:24:27.621Z,99908.00
2023-03-23T11:27:01.806Z,99902.00
2023-03-23T11:29:33.720Z,99904.00
2023-03-23T11:32:14.775Z,99885.00
2023-03-23T11:34:48.532Z,99902.00
2023-03-23T11:37:25.436Z,99902.00
2023-03-23T11:40:00.671Z,99907.00
2023-03-23T11:42:42.087Z,99901.00
2023-03-23T11:45:22.439Z,99904.00
2023-03-23T11:48:17.541Z,99897.00
2023-03-23T11:50:56.167Z,99911.00
2023-03-23T11:53:45.957Z,99907.00
2023-03-23T11:56:29.342Z,99905.00
2023-03-23T11:59:04.121Z,99910.00
2023-03-23T12:01:51.689Z,99901.00
2023-03-23T12:04:40.010Z,99918.00
2023-03-23T12:07:25.584Z,99912.00
2023-03-23T12:10:30.418Z,99909.00
2023-03-23T12:13:40.456Z,99910.00
2023-03-23T12:16:25.453Z,99913.00
2023-03-23T12:19:06.893Z,99926.00
2023-03-23T12:21:51.960Z,99924.00
2023-03-23T12:24:41.121Z,99920.00
2023-03-23T12:27:20.975Z,99916.00
2023-03-23T12:30:04.816Z,99918.00
2023-03-23T12:32:47.903Z,99914.00
2023-03-23T12:35:40.084Z,99919.00
2023-03-23T12:38:41.181Z,99910.00
2023-03-23T12:41:23.838Z,99917.00
2023-03-23T12:43:57.485Z,99908.00
2023-03-23T12:46:50.971Z,99898.00
2023-03-23T12:49:27.132Z,99901.00
2023-03-23T12:52:03.947Z,99902.00
2023-03-23T12:54:41.853Z,99898.00
2023-03-23T12:57:19.209Z,99895.00
2023-03-23T12:59:55.797Z,99894.00
2023-03-23T13:02:30.819Z,99885.00
2023-03-23T13:05:07.269Z,99878.00
2023-03-23T13:07:47.525Z,99862.00
2023-03-23T13:10:27.980Z,99864.00
2023-03-23T13:12:58.774Z,99898.00
2023-03-23T13:15:40.476Z,99902.00
2023-03-23T13:18:22.729Z,99906.00
2023-03-23T13:21:02.321Z,99892.00
2023-03-23T13:23:40.548Z,99885.00
2023-03-23T13:26:17.856Z,99891.00
2023-03-23T13:29:03.371Z,99892.00
2023-03-23T13:31:36.769Z,99888.00
2023-03-23T13:34:22.748Z,99885.00
2023-03-23T13:37:00.001Z,99886.00
2023-03-23T13:39:34.568Z,99871.00
2023-03-23T13:42:21.912Z,99879.00
2023-03-23T13:45:22.614Z,99866.00
2023-03-23T13:47:53.719Z,99863.00
2023-03-23T13:50:33.529Z,99856.00
2023-03-23T13:53:16.606Z,99863.00
2023-03-23T13:55:52.634Z,99869.00
2023-03-23T13:58:31.607Z,99859.00
2023-03-23T14:01:20.232Z,99854.00
2023-03-23T14:03:54.090Z,99860.00
2023-03-23T14:06:27.409Z,99864.00
2023-03-23T14:08:59.462Z,99853.00
2023-03-23T14:11:32.640Z,99862.00
2023-03-23T14:14:09.069Z,99856.00
2023-03-23T14:16:45.756Z,99865.00
2023-03-23T14:19:22.875Z,99875.00
2023-03-23T14:21:59.189Z,99873.00
2023-03-23T14:24:31.919Z,99861.00
2023-03-23T14:27:13.572Z,99871.00
2023-03-23T14:29:47.062Z,99870.00
2023-03-23T14:32:20.820Z,99869.00
2023-03-23T14:34:53.133Z,99880.00
2023-03-23T14:37:25.854Z,99881.00
2023-03-23T14:39:59.712Z,99882.00
2023-03-23T14:42:33.603Z,99880.00
2023-03-23T14:45:10.760Z,99870.00
2023-03-23T14:47:45.127Z,99871.00
2023-03-23T14:50:32.101Z,99879.00
2023-03-23T14:53:12.055Z,99856.00
2023-03-23T14:55:46.166Z,99848.00
2023-03-23T14:58:20.223Z,99867.00
2023-03-23T15:01:00.276Z,99875.00
2023-03-23T15:03:33.174Z,99870.00
2023-03-23T15:06:09.500Z,99885.00
2023-03-23T15:08:40.691Z,99892.00
2023-03-23T15:11:16.628Z,99892.00
2023-03-23T15:13:50.282Z,99901.00
2023-03-23T15:16:27.945Z,99900.00
2023-03-23T15:19:01.632Z,99911.00
2023-03-23T15:21:35.206Z,99897.00
2023-03-23T15:24:23.276Z,99893.00
2023-03-23T15:26:56.068Z,99894.00
2023-03-23T15:29:27.243Z,99907.00
2023-03-23T15:32:00.561Z,99898.00
2023-03-23T15:34:40.390Z,99875.00
2023-03-23T15:37:29.495Z,99869.00
2023-03-23T15:40:01.090Z,99872.00
2023-03-23T15:42:34.251Z,99878.00
2023-03-23T15:45:29.980Z,99867.00
2023-03-23T15:48:15.196Z,99873.00
2023-03-23T15:50:45.800Z,99858.00
2023-03-23T15:53:33.848Z,99881.00
2023-03-23T15:56:06.083Z,99879.00
2023-03-23T15:58:37.993Z,99884.00
2023-03-23T16:01:15.145Z,99880.00
2023-03-23T16:03:51.902Z,99893.00
2023-03-23T16:06:25.743Z,99875.00
2023-03-23T16:08:56.705Z,99883.00
2023-03-23T16:11:31.442Z,99890.00
2023-03-23T16:14:01.804Z,99892.00
2023-03-23T16:16:36.721Z,99904.00
2023-03-23T16:19:10.003Z,99903.00
2023-03-23T16:21:40.161Z,99905.00
2023-03-23T16:24:11.142Z,99897.00
2023-03-23T16:26:42.906Z,99900.00
2023-03-23T16:29:33.881Z,99906.00
2023-03-23T16:32:07.440Z,99924.00
2023-03-23T16:34:40.166Z,99927.00
2023-03-23T16:37:12.209Z,99922.00
2023-03-23T16:39:42.455Z,99915.00
2023-03-23T16:42:12.903Z,99915.00
2023-03-23T16:44:43.324Z,99909.00
2023-03-23T16:47:13.667Z,99919.00
2023-03-23T16:49:46.745Z,99917.00
2023-03-23T16:52:19.094Z,99920.00
2023-03-23T16:54:49.312Z,99921.00
2023-03-23T16:57:19.609Z,99924.00
2023-03-23T16:59:49.885Z,99936.00
2023-03-23T17:02:20.469Z,99943.00
2023-03-23T17:04:53.461Z,99946.00
2023-03-23T17:07:23.730Z,99952.00
2023-03-23T17:09:54.260Z,99963.00
2023-03-23T17:12:24.766Z,99968.00
2023-03-23T17:14:55.122Z,99968.00
2023-03-23T17:17:27.014Z,99964.00
2023-03-23T17:20:00.087Z,99964.00
2023-03-23T17:22:31.171Z,99975.00
2023-03-23T17:25:02.394Z,99992.00
2023-03-23T17:27:32.772Z,99999.00
2023-03-23T17:30:03.054Z,99995.00
2023-03-23T17:32:33.427Z,99991.00
2023-03-23T17:35:07.794Z,99992.00
2023-03-23T17:37:39.782Z,99996.00
2023-03-23T17:40:13.580Z,99986.00
2023-03-23T17:42:43.991Z,99994.00
2023-03-23T17:45:14.398Z,100010.00
2023-03-23T17:47:44.783Z,100004.00
2023-03-23T17:50:17.801Z,100007.00
2023-03-23T17:52:49.048Z,100023.00
2023-03-23T17:55:19.877Z,100024.00
2023-03-23T17:57:50.351Z,100037.00
2023-03-23T18:00:22.701Z,100046.00
2023-03-23T18:02:53.182Z,100040.00
2023-03-23T18:05:28.031Z,100013.00
2023-03-23T18:07:58.561Z,100019.00
2023-03-23T18:10:29.174Z,100018.00
2023-03-23T18:12:59.707Z,100010.00
2023-03-23T18:15:30.014Z,100003.00
2023-03-23T18:20:44.503Z,100010.00
2023-03-23T18:23:15.070Z,100017.00
2023-03-23T18:25:45.452Z,100011.00
2023-03-23T18:28:16.029Z,100009.00
2023-03-23T18:30:49.370Z,100015.00
2023-03-23T18:33:20.455Z,100024.00
2023-03-23T18:36:00.748Z,100051.00
2023-03-23T18:38:32.360Z,100053.00
2023-03-23T18:41:02.519Z,100059.00
2023-03-23T18:43:32.657Z,100065.00
2023-03-23T18:46:02.914Z,100081.00
2023-03-23T18:48:33.213Z,100082.00
2023-03-23T18:51:06.654Z,100088.00
2023-03-23T18:53:36.821Z,100079.00
2023-03-23T18:56:11.119Z,100085.00
2023-03-23T18:58:42.350Z,100093.00
2023-03-23T19:01:16.128Z,100092.00
2023-03-23T19:03:47.079Z,100077.00
2023-03-23T19:06:23.182Z,100068.00
2023-03-23T19:08:54.953Z,100066.00
2023-03-23T19:11:28.067Z,100057.00
2023-03-23T19:14:02.895Z,100060.00
2023-03-23T19:16:36.159Z,100079.00
2023-03-23T19:19:08.550Z,100084.00
2023-03-23T19:21:46.973Z,100088.00
2023-03-23T19:24:17.461Z,100080.00
2023-03-23T19:26:49.618Z,100064.00
2023-03-23T19:29:26.818Z,100068.00
2023-03-23T19:31:57.773Z,100077.00
2023-03-23T19:34:30.780Z,100077.00
2023-03-23T19:37:06.236Z,100076.00
2023-03-23T19:39:41.858Z,100082.00
2023-03-23T19:42:17.007Z,100088.00
2023-03-23T19:44:47.531Z,100087.00
2023-03-23T19:47:18.290Z,100083.00
2023-03-23T19:49:48.464Z,100086.00
2023-03-23T19:52:21.471Z,100069.00
2023-03-23T19:54:51.657Z,100065.00
2023-03-23T19:57:22.489Z,100075.00
2023-03-23T19:59:53.506Z,100066.00
2023-03-23T20:02:23.640Z,100059.00
2023-03-23T20:04:54.996Z,100074.00
2023-03-23T20:07:27.984Z,100069.00
2023-03-23T20:09:58.123Z,100083.00
2023-03-23T20:12:28.280Z,100080.00
2023-03-23T20:14:59.054Z,100074.00
2023-03-23T20:17:29.405Z,100078.00
2023-03-23T20:19:59.448Z,100067.00
2023-03-23T20:22:32.399Z,100073.00
2023-03-23T20:25:02.539Z,100070.00
2023-03-23T20:27:32.805Z,100067.00
2023-03-23T20:30:04.242Z,100069.00
2023-03-23T20:32:35.395Z,100074.00
2023-03-23T20:35:09.466Z,100083.00
2023-03-23T20:37:43.349Z,100063.00
2023-03-23T20:40:16.346Z,100066.00
2023-03-23T20:42:46.331Z,100074.00
2023-03-23T20:45:18.654Z,100066.00
2023-03-23T20:47:48.804Z,100063.00
2023-03-23T20:50:18.957Z,100073.00
2023-03-23T20:52:51.616Z,100058.00
2023-03-23T20:55:21.971Z,100065.00
2023-03-23T20:57:52.257Z,100063.00
2023-03-23T21:00:22.613Z,100061.00
2023-03-23T21:02:54.305Z,100059.00
2023-03-23T21:05:24.965Z,100058.00
2023-03-23T21:07:58.121Z,100062.00
2023-03-23T21:10:29.452Z,100067.00
2023-03-23T21:13:05.467Z,100074.00
2023-03-23T21:15:36.686Z,100060.00
2023-03-23T21:18:07.460Z,100059.00
2023-03-23T21:20:38.366Z,100056.00
2023-03-23T21:23:11.399Z,100053.00
2023-03-23T21:25:44.761Z,100057.00
2023-03-23T21:28:17.453Z,100059.00
2023-03-23T21:30:49.575Z,100047.00
2023-03-23T21:33:20.201Z,100046.00
2023-03-23T21:35:50.185Z,100037.00
2023-03-23T21:38:26.293Z,100047.00
2023-03-23T21:40:56.982Z,100033.00
2023-03-23T21:43:28.296Z,100039.00
2023-03-23T21:46:02.939Z,100035.00
2023-03-23T21:48:33.084Z,100040.00
2023-03-23T21:51:08.788Z,100033.00
2023-03-23T21:53:42.342Z,100026.00
2023-03-23T21:56:14.454Z,100021.00
2023-03-23T21:58:45.355Z,100027.00
2023-03-23T22:01:16.379Z,100014.00
2023-03-23T22:03:47.542Z,100015.00
2023-03-23T22:06:26.835Z,100015.00
2023-03-23T22:08:59.444Z,100017.00
2023-03-23T22:11:33.280Z,100017.00
2023-03-23T22:14:04.338Z,100020.00
2023-03-23T22:16:35.839Z,100015.00
2023-03-23T22:19:06.841Z,100007.00
2023-03-23T22:21:37.188Z,100006.00
2023-03-23T22:24:10.083Z,100007.00
2023-03-23T22:26:40.135Z,99995.00
2023-03-23T22:29:11.359Z,100004.00
2023-03-23T22:31:42.537Z,100007.00
2023-03-23T22:34:13.582Z,99999.00
2023-03-23T22:36:44.175Z,99995.00
2023-03-23T22:39:16.960Z,99991.00
2023-03-23T22:41:47.058Z,99990.00
2023-03-23T22:44:20.166Z,99981.00
2023-03-23T22:46:50.252Z,99992.00
2023-03-23T22:49:20.318Z,99995.00
2023-03-23T22:51:50.402Z,99983.00
2023-03-23T22:54:23.174Z,99981.00
2023-03-23T22:56:53.757Z,99983.00
2023-03-23T22:59:23.867Z,99973.00
2023-03-23T23:01:54.040Z,99970.00
2023-03-23T23:04:24.175Z,99970.00
2023-03-23T23:07:06.439Z,99960.00
2023-03-23T23:09:43.528Z,99968.00
2023-03-23T23:12:15.407Z,99962.00
2023-03-23T23:14:46.399Z,99949.00
2023-03-23T23:17:16.477Z,99954.00
2023-03-23T23:19:46.578Z,99958.00
2023-03-23T23:22:19.352Z,99959.00
2023-03-23T23:24:52.422Z,99954.00
2023-03-23T23:27:22.787Z,99954.00
2023-03-23T23:29:53.203Z,99956.00
2023-03-23T23:32:24.083Z,99956.00
2023-03-23T23:34:54.556Z,99948.00
2023-03-23T23:37:24.660Z,99952.00
2023-03-23T23:39:57.264Z,99950.00
2023-03-23T23:42:27.321Z,99945.00
2023-03-23T23:44:57.364Z,99949.00
2023-03-23T23:47:27.493Z,99953.00
2023-03-23T23:49:57.685Z,99941.00
2023-03-23T23:52:27.825Z,99936.00
2023-03-23T23:55:00.536Z,99931.00
2023-03-23T23:57:30.793Z,99937.00
